Camp Douglas, WI

03:36 CDT le 23 octobre 2014 (GMT -0500)
Black River Falls Area | Change Station
CLOSE
Current Station
Aéroport
Location: Black River Falls,
Altitude: 837 ft
Stations météo à proximité

Alt. 837 ft 44.25 °N, 90.86 °W | Updated 21 minutes ago

Nuageux
Nuageux
47 ° F
Paraît 47 ° F
N
0
Vent Variable Vent de Nord

Aujourd'hui
Haut(e) -- | Bas -- ° F
--% Risque de précip.
Hier
Haut(e) -- | Bas -- ° F
Precip. -- pouce
7:25 AM 6:04 PM
Lune descendante, 0% visible
Pression 30.11 pouce
Visibilité 10.0 Miles terrestres
Nuages Nuageux 4100 ft
Nuageux 5500 ft
Couvert 8000 ft
Point de rosée 46 ° F
Humidité 95%
Précipitations 0.06 pouce
Profondeur de la couche neigeuse Non disponible.
UV 0 sur 12
Pollen .10 sur 12
Qualité de l'air Non disponible.
Flu Activity Sporadic
METAR KBCK 230815Z AUTO 00000KT 10SM -DZ BKN041 BKN055 OVC080 08/08 A3011 RMK AO2 T00820075

More Conditions Fewer Conditions

Pression 30.11 pouce
Visibilité 10.0 Miles terrestres
Nuages Nuageux 4100 ft
Nuageux 5500 ft
Couvert 8000 ft
Point de rosée 46 ° F
Humidité 95%
Précipitations 0.06 pouce
Profondeur de la couche neigeuse Non disponible.
UV 0 sur 12
Pollen .10 sur 12
Qualité de l'air Non disponible.
Flu Activity Sporadic
METAR KBCK 230815Z AUTO 00000KT 10SM -DZ BKN041 BKN055 OVC080 08/08 A3011 RMK AO2 T00820075

More Conditions Fewer Conditions

Nowcast | as of 2:14 am CDT on October 23, 2014

Rain showers will continue to move through the area but should end for a little bit before another round of light rain moves in later this morning. Rainfall amounts will be a tenth of an inch or less.

×

10-Day Weather Forecast

Almanac

Astronomie

Oct. 23, 2014 Lever Coucher
Temps réel 07:25 CDT 18:04 CDT
Crépuscule civil 06:56 CDT 18:33 CDT
Crépuscule nautique 06:22 CDT 19:07 CDT
Crépuscule astronomique 05:49 CDT 19:40 CDT
Lune 07:04 CDT 18:06 CDT
Durée de lumière visible 11h 37m
Longueur du jour
10h 38m
Tomorrow will be 2m 49s shorter.
Lune descendante, 0% of the Moon is Illuminated
Aujourd'hui
Lune descendante
Oct 23
Nouveau
Oct 30
Premier quartier
Nov 6
Pleine lune
Nov 14
Dernier quartier

Extrêmes aujourd'hui

State Highs State Lows

Community

WunderPhotos

Upload Photos

1,764,197 Photos téléchargées !

Nearby

Épaisseur de neige

Station Depth Altitude
Pas de nouvelles chutes de neige

Activité sismique

Ville Distance Mag. Time & Date
No recent earthquake activity has been reported nearby.
Minimum magnitude displayed is 2.5.

Températures des eaux côtières

Lieu Température
Aucun rapport de station

Stations météo à proximité